Time,TemperatureF,DewpointF,PressureIn,WindDirection,WindDirectionDegrees,WindSpeedMPH,WindSpeedGustMPH,Humidity,HourlyPrecipIn,Conditions,Clouds,dailyrainin,SoftwareType,DateUTC
2013-06-20 00:10:00,49.7,48.0,30.17,ENE,62,0.0,0.0,92,0.00,,,0.00,weatherlink.com 1.10,2013-06-20 04:10:00,
2013-06-20 00:25:00,49.4,48.0,30.17,ENE,62,0.0,1.0,93,0.00,,,0.00,weatherlink.com 1.10,2013-06-20 04:25:00,
2013-06-20 00:40:00,49.5,47.0,30.17,ENE,62,0.0,1.0,92,0.00,,,0.00,weatherlink.com 1.10,2013-06-20 04:40:00,
2013-06-20 00:55:00,49.3,47.0,30.16,ENE,62,0.0,0.0,92,0.00,,,0.00,weatherlink.com 1.10,2013-06-20 04:55:00,
2013-06-20 01:10:00,48.8,47.0,30.16,ENE,62,0.0,0.0,92,0.00,,,0.00,weatherlink.com 1.10,2013-06-20 05:10:00,
2013-06-20 01:25:00,48.1,46.0,30.16,ENE,62,0.0,0.0,92,0.00,,,0.00,weatherlink.com 1.10,2013-06-20 05:25:00,
2013-06-20 01:40:00,47.8,46.0,30.16,ENE,62,0.0,0.0,93,0.00,,,0.00,weatherlink.com 1.10,2013-06-20 05:40:00,
2013-06-20 01:55:00,47.4,46.0,30.16,ENE,62,0.0,0.0,94,0.00,,,0.00,weatherlink.com 1.10,2013-06-20 05:55:00,
2013-06-20 02:10:00,47.2,46.0,30.16,ENE,62,0.0,0.0,94,0.00,,,0.00,weatherlink.com 1.10,2013-06-20 06:10:00,
2013-06-20 02:25:00,47.6,46.0,30.16,ENE,62,0.0,0.0,95,0.00,,,0.00,weatherlink.com 1.10,2013-06-20 06:25:00,
2013-06-20 02:40:00,48.2,47.0,30.16,SE,129,0.0,3.0,95,0.00,,,0.00,weatherlink.com 1.10,2013-06-20 06:40:00,
2013-06-20 02:55:00,48.9,47.0,30.16,South,184,1.0,3.0,93,0.00,,,0.00,weatherlink.com 1.10,2013-06-20 06:55:00,
2013-06-20 03:10:00,48.7,46.0,30.16,South,184,0.0,0.0,91,0.00,,,0.00,weatherlink.com 1.10,2013-06-20 07:10:00,
2013-06-20 03:25:00,48.1,46.0,30.16,South,184,0.0,0.0,93,0.00,,,0.00,weatherlink.com 1.10,2013-06-20 07:25:00,
2013-06-20 03:40:00,47.6,46.0,30.16,South,184,0.0,0.0,93,0.00,,,0.00,weatherlink.com 1.10,2013-06-20 07:40:00,
2013-06-20 03:55:00,47.2,46.0,30.16,South,184,0.0,0.0,94,0.00,,,0.00,weatherlink.com 1.10,2013-06-20 07:55:00,
2013-06-20 04:10:00,47.2,46.0,30.16,SSE,162,2.0,3.0,95,0.00,,,0.00,weatherlink.com 1.10,2013-06-20 08:10:00,
2013-06-20 04:25:00,47.8,46.0,30.16,SSE,162,0.0,2.0,94,0.00,,,0.00,weatherlink.com 1.10,2013-06-20 08:25:00,
2013-06-20 04:40:00,47.6,46.0,30.16,SSE,162,0.0,1.0,93,0.00,,,0.00,weatherlink.com 1.10,2013-06-20 08:40:00,
2013-06-20 04:55:00,48.5,46.0,30.16,SSW,192,0.0,4.0,92,0.00,,,0.00,weatherlink.com 1.10,2013-06-20 08:55:00,
2013-06-20 05:10:00,49.2,47.0,30.16,SSW,192,1.0,2.0,90,0.00,,,0.00,weatherlink.com 1.10,2013-06-20 09:10:00,
2013-06-20 05:25:00,49.9,47.0,30.16,South,182,0.0,5.0,88,0.00,,,0.00,weatherlink.com 1.10,2013-06-20 09:25:00,
2013-06-20 05:40:00,50.0,47.0,30.16,South,190,3.0,4.0,88,0.00,,,0.00,weatherlink.com 1.10,2013-06-20 09:40:00,
2013-06-20 05:55:00,50.6,47.0,30.17,SSW,194,6.0,7.0,86,0.00,,,0.00,weatherlink.com 1.10,2013-06-20 09:55:00,
2013-06-20 06:10:00,50.9,47.0,30.17,South,173,3.0,7.0,86,0.00,,,0.00,weatherlink.com 1.10,2013-06-20 10:10:00,
2013-06-20 06:25:00,51.5,47.0,30.18,South,188,6.0,8.0,85,0.00,,,0.00,weatherlink.com 1.10,2013-06-20 10:25:00,
2013-06-20 06:41:00,52.2,48.0,30.18,SSW,192,4.0,9.0,84,0.00,,,0.00,weatherlink.com 1.10,2013-06-20 10:41:00,
2013-06-20 06:56:00,53.0,48.0,30.18,South,186,1.0,7.0,84,0.00,,,0.00,weatherlink.com 1.10,2013-06-20 10:56:00,
2013-06-20 07:11:00,54.3,49.0,30.19,SSE,163,0.0,2.0,82,0.00,,,0.00,weatherlink.com 1.10,2013-06-20 11:11:00,
2013-06-20 07:26:00,56.1,50.0,30.19,NNW,343,2.0,4.0,79,0.00,,,0.00,weatherlink.com 1.10,2013-06-20 11:26:00,
2013-06-20 07:41:00,55.7,49.0,30.20,North,5,2.0,4.0,79,0.00,,,0.00,weatherlink.com 1.10,2013-06-20 11:41:00,
2013-06-20 07:56:00,57.1,50.0,30.20,NNE,15,0.0,2.0,77,0.00,,,0.00,weatherlink.com 1.10,2013-06-20 11:56:00,
2013-06-20 08:11:00,59.4,51.0,30.21,North,10,1.0,3.0,73,0.00,,,0.00,weatherlink.com 1.10,2013-06-20 12:11:00,
2013-06-20 08:26:00,59.8,51.0,30.22,WNW,287,2.0,4.0,73,0.00,,,0.00,weatherlink.com 1.10,2013-06-20 12:26:00,
2013-06-20 08:41:00,60.4,52.0,30.22,North,355,1.0,4.0,73,0.00,,,0.00,weatherlink.com 1.10,2013-06-20 12:41:00,
2013-06-20 08:56:00,62.3,52.0,30.22,NE,44,0.0,4.0,70,0.00,,,0.00,weatherlink.com 1.10,2013-06-20 12:56:00,
2013-06-20 09:11:00,63.2,52.0,30.22,North,355,0.0,4.0,67,0.00,,,0.00,weatherlink.com 1.10,2013-06-20 13:11:00,
2013-06-20 09:26:00,64.5,52.0,30.23,NE,52,1.0,5.0,65,0.00,,,0.00,weatherlink.com 1.10,2013-06-20 13:26:00,
2013-06-20 09:41:00,65.1,52.0,30.23,NNE,12,4.0,5.0,63,0.00,,,0.00,weatherlink.com 1.10,2013-06-20 13:41:00,
2013-06-20 09:56:00,65.7,53.0,30.23,WNW,288,3.0,5.0,63,0.00,,,0.00,weatherlink.com 1.10,2013-06-20 13:56:00,
2013-06-20 10:11:00,66.5,54.0,30.22,NW,313,3.0,4.0,64,0.00,,,0.00,weatherlink.com 1.10,2013-06-20 14:11:00,
2013-06-20 10:26:00,68.1,54.0,30.22,NE,42,4.0,4.0,60,0.00,,,0.00,weatherlink.com 1.10,2013-06-20 14:26:00,
2013-06-20 10:41:00,69.0,53.0,30.22,NE,36,3.0,4.0,58,0.00,,,0.00,weatherlink.com 1.10,2013-06-20 14:41:00,
2013-06-20 10:56:00,69.9,54.0,30.22,WNW,286,5.0,5.0,57,0.00,,,0.00,weatherlink.com 1.10,2013-06-20 14:56:00,
2013-06-20 11:11:00,69.9,54.0,30.22,North,9,3.0,6.0,57,0.00,,,0.00,weatherlink.com 1.10,2013-06-20 15:11:00,
2013-06-20 11:26:00,70.9,54.0,30.22,ENE,57,4.0,5.0,55,0.00,,,0.00,weatherlink.com 1.10,2013-06-20 15:26:00,
2013-06-20 11:41:00,71.2,54.0,30.21,ENE,66,2.0,6.0,54,0.00,,,0.00,weatherlink.com 1.10,2013-06-20 15:41:00,
2013-06-20 11:57:00,72.4,51.0,30.21,NW,317,0.0,5.0,47,0.00,,,0.00,weatherlink.com 1.10,2013-06-20 15:57:00,
2013-06-20 12:12:00,72.5,52.0,30.21,NE,35,5.0,6.0,48,0.00,,,0.00,weatherlink.com 1.10,2013-06-20 16:12:00,
2013-06-20 12:27:00,71.4,52.0,30.21,NW,305,3.0,9.0,50,0.00,,,0.00,weatherlink.com 1.10,2013-06-20 16:27:00,
2013-06-20 12:42:00,72.1,50.0,30.20,North,350,3.0,7.0,46,0.00,,,0.00,weatherlink.com 1.10,2013-06-20 16:42:00,
2013-06-20 12:57:00,72.6,50.0,30.20,NNE,28,4.0,7.0,45,0.00,,,0.00,weatherlink.com 1.10,2013-06-20 16:57:00,
2013-06-20 13:12:00,72.6,49.0,30.20,NE,36,3.0,7.0,44,0.00,,,0.00,weatherlink.com 1.10,2013-06-20 17:12:00,
2013-06-20 13:27:00,72.6,50.0,30.20,WNW,290,6.0,8.0,45,0.00,,,0.00,weatherlink.com 1.10,2013-06-20 17:27:00,
2013-06-20 13:42:00,72.9,49.0,30.20,North,360,7.0,9.0,43,0.00,,,0.00,weatherlink.com 1.10,2013-06-20 17:42:00,
2013-06-20 13:57:00,73.0,50.0,30.20,NE,36,5.0,9.0,44,0.00,,,0.00,weatherlink.com 1.10,2013-06-20 17:57:00,
2013-06-20 14:12:00,72.4,47.0,30.20,NNW,332,4.0,9.0,41,0.00,,,0.00,weatherlink.com 1.10,2013-06-20 18:12:00,
2013-06-20 14:27:00,72.6,51.0,30.21,NNW,337,2.0,9.0,46,0.00,,,0.00,weatherlink.com 1.10,2013-06-20 18:27:00,
2013-06-20 14:42:00,72.3,49.0,30.22,ENE,67,5.0,10.0,44,0.00,,,0.00,weatherlink.com 1.10,2013-06-20 18:42:00,
2013-06-20 14:57:00,71.6,50.0,30.22,NNW,348,2.0,9.0,47,0.00,,,0.00,weatherlink.com 1.10,2013-06-20 18:57:00,
2013-06-20 15:12:00,71.5,49.0,30.22,West,281,3.0,9.0,45,0.00,,,0.00,weatherlink.com 1.10,2013-06-20 19:12:00,
2013-06-20 15:27:00,71.0,48.0,30.21,NNE,19,6.0,8.0,44,0.00,,,0.00,weatherlink.com 1.10,2013-06-20 19:27:00,
2013-06-20 15:42:00,71.7,47.0,30.21,NNW,340,2.0,8.0,42,0.00,,,0.00,weatherlink.com 1.10,2013-06-20 19:42:00,
2013-06-20 15:57:00,73.4,49.0,30.21,NE,34,3.0,6.0,42,0.00,,,0.00,weatherlink.com 1.10,2013-06-20 19:57:00,
2013-06-20 16:12:00,73.5,48.0,30.21,NNE,27,3.0,7.0,41,0.00,,,0.00,weatherlink.com 1.10,2013-06-20 20:12:00,
2013-06-20 16:27:00,73.6,48.0,30.21,WNW,284,4.0,8.0,41,0.00,,,0.00,weatherlink.com 1.10,2013-06-20 20:27:00,
2013-06-20 16:42:00,73.0,46.0,30.21,NW,325,3.0,6.0,38,0.00,,,0.00,weatherlink.com 1.10,2013-06-20 20:42:00,
2013-06-20 16:57:00,73.7,47.0,30.21,NW,319,2.0,6.0,39,0.00,,,0.00,weatherlink.com 1.10,2013-06-20 20:57:00,
2013-06-20 17:12:00,75.1,47.0,30.20,SW,231,0.0,4.0,37,0.00,,,0.00,weatherlink.com 1.10,2013-06-20 21:12:00,
2013-06-20 17:27:00,75.6,46.0,30.20,WNW,284,1.0,4.0,35,0.00,,,0.00,weatherlink.com 1.10,2013-06-20 21:27:00,
2013-06-20 17:42:00,77.0,49.0,30.19,SW,225,3.0,6.0,37,0.00,,,0.00,weatherlink.com 1.10,2013-06-20 21:42:00,
2013-06-20 17:57:00,76.6,48.0,30.19,West,277,4.0,5.0,37,0.00,,,0.00,weatherlink.com 1.10,2013-06-20 21:57:00,
2013-06-20 18:12:00,76.4,50.0,30.19,SW,233,1.0,4.0,39,0.00,,,0.00,weatherlink.com 1.10,2013-06-20 22:12:00,
2013-06-20 18:27:00,76.5,50.0,30.18,West,273,2.0,6.0,39,0.00,,,0.00,weatherlink.com 1.10,2013-06-20 22:27:00,
2013-06-20 18:42:00,76.8,49.0,30.18,WNW,282,0.0,6.0,38,0.00,,,0.00,weatherlink.com 1.10,2013-06-20 22:42:00,
2013-06-20 18:57:00,76.5,49.0,30.18,WNW,284,4.0,4.0,38,0.00,,,0.00,weatherlink.com 1.10,2013-06-20 22:57:00,
2013-06-20 19:12:00,74.2,49.0,30.18,NW,321,1.0,5.0,41,0.00,,,0.00,weatherlink.com 1.10,2013-06-20 23:12:00,
2013-06-20 19:27:00,72.5,45.0,30.17,WNW,285,3.0,5.0,37,0.00,,,0.00,weatherlink.com 1.10,2013-06-20 23:27:00,
2013-06-20 19:42:00,71.5,46.0,30.18,North,360,3.0,6.0,41,0.00,,,0.00,weatherlink.com 1.10,2013-06-20 23:42:00,
2013-06-20 19:57:00,70.3,49.0,30.19,North,350,1.0,5.0,47,0.00,,,0.00,weatherlink.com 1.10,2013-06-20 23:57:00,
2013-06-20 20:12:00,68.7,52.0,30.19,North,9,0.0,5.0,55,0.00,,,0.00,weatherlink.com 1.10,2013-06-21 00:12:00,
2013-06-20 20:27:00,67.5,53.0,30.18,North,10,0.0,3.0,61,0.00,,,0.00,weatherlink.com 1.10,2013-06-21 00:27:00,
2013-06-20 20:42:00,66.0,52.0,30.18,North,10,0.0,1.0,62,0.00,,,0.00,weatherlink.com 1.10,2013-06-21 00:42:00,
2013-06-20 20:57:00,64.4,56.0,30.18,North,10,0.0,1.0,73,0.00,,,0.00,weatherlink.com 1.10,2013-06-21 00:57:00,
2013-06-20 21:12:00,62.0,54.0,30.18,North,10,0.0,1.0,75,0.00,,,0.00,weatherlink.com 1.10,2013-06-21 01:12:00,
2013-06-20 21:27:00,60.2,53.0,30.19,North,10,0.0,0.0,76,0.00,,,0.00,weatherlink.com 1.10,2013-06-21 01:27:00,
2013-06-20 21:42:00,58.9,54.0,30.19,North,10,0.0,1.0,83,0.00,,,0.00,weatherlink.com 1.10,2013-06-21 01:42:00,
2013-06-20 21:57:00,57.7,53.0,30.20,North,10,0.0,0.0,85,0.00,,,0.00,weatherlink.com 1.10,2013-06-21 01:57:00,
2013-06-20 22:12:00,56.8,53.0,30.20,North,10,0.0,0.0,87,0.00,,,0.00,weatherlink.com 1.10,2013-06-21 02:12:00,
2013-06-20 22:27:00,55.7,52.0,30.20,North,10,0.0,0.0,88,0.00,,,0.00,weatherlink.com 1.10,2013-06-21 02:27:00,
2013-06-20 22:42:00,55.2,53.0,30.20,North,10,0.0,1.0,91,0.00,,,0.00,weatherlink.com 1.10,2013-06-21 02:42:00,
2013-06-20 22:57:00,54.9,52.0,30.21,North,10,0.0,1.0,91,0.00,,,0.00,weatherlink.com 1.10,2013-06-21 02:57:00,
2013-06-20 23:12:00,54.4,52.0,30.20,North,10,1.0,1.0,90,0.00,,,0.00,weatherlink.com 1.10,2013-06-21 03:12:00,
2013-06-20 23:27:00,54.1,52.0,30.20,North,10,0.0,0.0,91,0.00,,,0.00,weatherlink.com 1.10,2013-06-21 03:27:00,
2013-06-20 23:42:00,53.7,51.0,30.20,North,10,0.0,2.0,91,0.00,,,0.00,weatherlink.com 1.10,2013-06-21 03:42:00,
2013-06-20 23:57:00,53.6,51.0,30.20,North,10,0.0,1.0,91,0.00,,,0.00,weatherlink.com 1.10,2013-06-21 03:57:00,